Time;durP1;ratioP1;P1;durP2;ratioP2;P2;SDS_P1;SDS_P2;PMS_P1;PMS_P2;Temp;Humidity;BMP_temperature;BMP_pressure;BME280_temperature;BME280_humidity;BME280_pressure;Samples;Min_cycle;Max_cycle;Signal;HPM_P1;HPM_P2
2021/07/21 00:00:52;;;;;;;5.13;1.20;;;13.50;53.90;;;;;;5105201;28;20062;-55
2021/07/21 00:03:23;;;;;;;4.57;1.10;;;13.40;58.60;;;;;;5105703;28;20043;-55
2021/07/21 00:05:52;;;;;;;12.60;1.70;;;13.30;58.70;;;;;;5105575;28;20373;-60
2021/07/21 00:08:19;;;;;;;3.90;1.10;;;13.50;55.40;;;;;;5105568;28;20100;-57
2021/07/21 00:10:50;;;;;;;3.15;0.85;;;13.50;56.20;;;;;;5089138;28;20146;-51
2021/07/21 00:13:28;;;;;;;9.38;1.00;;;13.60;56.80;;;;;;5088780;28;20035;-59
2021/07/21 00:21:11;;;;;;;4.07;0.77;;;13.70;58.50;;;;;;5090801;28;20024;-61
2021/07/21 00:23:39;;;;;;;4.82;0.98;;;13.80;60.50;;;;;;5097061;28;20482;-60
2021/07/21 00:26:07;;;;;;;7.25;1.40;;;13.80;55.60;;;;;;5076297;28;20040;-58
2021/07/21 00:28:39;;;;;;;5.80;1.35;;;13.70;57.30;;;;;;5092478;28;20074;-56
2021/07/21 00:31:07;;;;;;;5.93;1.10;;;13.70;57.90;;;;;;5090848;28;20094;-51
2021/07/21 00:33:34;;;;;;;5.13;1.23;;;13.80;58.90;;;;;;5101041;28;20055;-57
2021/07/21 00:36:01;;;;;;;6.53;1.13;;;13.70;56.90;;;;;;5098387;28;20517;-63
2021/07/21 00:38:30;;;;;;;5.18;1.52;;;13.60;54.10;;;;;;5098440;28;20047;-64
2021/07/21 00:40:58;;;;;;;7.20;1.05;;;13.90;59.40;;;;;;5076143;28;20117;-62
2021/07/21 00:43:28;;;;;;;9.02;1.30;;;14.10;56.50;;;;;;5084207;28;20084;-59
2021/07/21 00:45:55;;;;;;;4.35;1.25;;;14.10;59.60;;;;;;5101207;28;20036;-58
2021/07/21 00:48:22;;;;;;;4.32;1.17;;;14.10;54.40;;;;;;5097357;28;20036;-60
2021/07/21 00:50:53;;;;;;;6.15;1.23;;;14.20;60.80;;;;;;5078496;28;20537;-55
2021/07/21 00:53:20;;;;;;;8.15;2.00;;;14.10;55.30;;;;;;5097564;28;20092;-56
2021/07/21 00:55:48;;;;;;;2.97;0.98;;;14.30;59.90;;;;;;5093297;28;20066;-60
2021/07/21 00:58:16;;;;;;;3.78;1.02;;;14.30;58.90;;;;;;5065945;28;20793;-60
2021/07/21 01:00:44;;;;;;;3.97;1.20;;;13.80;55.50;;;;;;5084004;28;20035;-58
2021/07/21 01:03:11;;;;;;;6.47;2.10;;;14.10;58.30;;;;;;5084568;28;20034;-61
2021/07/21 01:05:43;;;;;;;9.70;1.20;;;14.20;57.60;;;;;;5084786;28;20479;-57
2021/07/21 01:08:12;;;;;;;8.90;1.65;;;14.10;56.90;;;;;;5084127;28;20032;-58
2021/07/21 01:11:07;;;;;;;7.22;1.45;;;14.30;56.80;;;;;;5084102;28;20028;-57
2021/07/21 01:13:41;;;;;;;12.13;1.85;;;14.50;59.40;;;;;;5046820;28;20071;-59
2021/07/21 01:16:19;;;;;;;4.60;1.02;;;14.60;59.80;;;;;;5084058;28;20035;-55
2021/07/21 01:19:00;;;;;;;10.07;1.30;;;14.50;59.10;;;;;;5084352;28;20546;-60
2021/07/21 01:21:51;;;;;;;9.60;1.85;;;14.60;55.20;;;;;;5084179;28;20170;-60
2021/07/21 01:24:58;;;;;;;7.97;1.80;;;14.70;55.80;;;;;;5083928;28;20066;-59
2021/07/21 01:27:39;;;;;;;6.70;1.48;;;14.70;57.80;;;;;;5083823;28;20052;-58
2021/07/21 01:30:12;;;;;;;7.32;1.45;;;14.50;55.00;;;;;;5083707;28;20129;-59
2021/07/21 01:32:43;;;;;;;7.95;1.45;;;14.70;55.20;;;;;;5082866;28;20028;-53
2021/07/21 01:35:33;;;;;;;11.00;2.05;;;14.70;58.30;;;;;;5084944;28;20055;-54
2021/07/21 01:38:05;;;;;;;5.97;1.65;;;14.70;55.60;;;;;;5089958;28;20314;-50
2021/07/21 01:40:52;;;;;;;5.30;1.42;;;14.60;57.10;;;;;;5094469;28;20023;-57
2021/07/21 01:43:28;;;;;;;9.43;1.85;;;14.70;55.00;;;;;;5065559;28;20040;-59
2021/07/21 01:45:58;;;;;;;6.95;1.02;;;14.70;54.00;;;;;;5094312;28;20493;-61
2021/07/21 01:48:29;;;;;;;8.38;1.90;;;14.50;55.40;;;;;;5095666;28;20032;-53
2021/07/21 01:50:59;;;;;;;3.35;1.25;;;14.40;57.80;;;;;;5100108;28;20486;-59
2021/07/21 01:53:35;;;;;;;6.18;1.15;;;14.60;59.60;;;;;;5091429;28;20083;-52
2021/07/21 01:56:05;;;;;;;6.45;1.23;;;14.80;60.10;;;;;;5071023;28;20044;-52
2021/07/21 01:58:36;;;;;;;5.15;1.23;;;14.90;60.20;;;;;;5088170;28;20032;-57
2021/07/21 02:01:06;;;;;;;5.05;1.40;;;15.00;59.80;;;;;;5087357;28;20020;-58
2021/07/21 02:03:35;;;;;;;5.57;1.50;;;15.10;59.90;;;;;;5087546;28;20434;-56
2021/07/21 02:06:06;;;;;;;4.97;1.15;;;15.10;59.70;;;;;;5087182;28;20486;-54
2021/07/21 02:08:34;;;;;;;4.07;1.30;;;15.10;59.70;;;;;;5087054;28;20066;-58
2021/07/21 02:11:05;;;;;;;3.72;1.40;;;15.10;60.00;;;;;;5087279;28;20094;-59
2021/07/21 02:13:34;;;;;;;4.43;1.35;;;15.20;60.60;;;;;;5086934;28;20032;-60
2021/07/21 02:16:04;;;;;;;9.40;1.42;;;15.20;60.50;;;;;;5087028;28;20039;-55
2021/07/21 02:18:32;;;;;;;3.47;0.95;;;15.30;60.30;;;;;;5088298;28;20069;-56
2021/07/21 02:21:04;;;;;;;5.72;1.15;;;15.30;60.60;;;;;;5087163;28;20032;-57
2021/07/21 02:23:33;;;;;;;5.90;1.35;;;15.40;61.50;;;;;;5087103;28;20032;-59
2021/07/21 02:26:01;;;;;;;5.43;1.20;;;15.60;60.40;;;;;;5087054;28;20152;-60
2021/07/21 02:28:32;;;;;;;6.13;1.60;;;15.70;60.60;;;;;;5086724;28;20511;-58
2021/07/21 02:31:07;;;;;;;5.60;1.15;;;16.10;60.70;;;;;;5086639;28;20065;-58
2021/07/21 02:34:03;;;;;;;5.72;1.15;;;16.30;59.10;;;;;;5087028;28;20038;-59
2021/07/21 02:36:32;;;;;;;6.18;1.33;;;16.50;57.80;;;;;;5086795;28;20517;-61
2021/07/21 02:39:05;;;;;;;7.40;1.90;;;16.90;58.60;;;;;;5087494;28;20036;-58
2021/07/21 02:41:34;;;;;;;5.88;2.05;;;17.00;56.00;;;;;;5086375;28;20403;-62
2021/07/21 02:44:05;;;;;;;8.05;2.63;;;17.00;55.10;;;;;;5085944;28;20052;-60
2021/07/21 02:46:32;;;;;;;5.80;2.80;;;17.00;55.60;;;;;;5086042;28;20050;-61
2021/07/21 02:49:00;;;;;;;5.60;2.10;;;17.10;56.10;;;;;;5068102;28;20059;-61
2021/07/21 02:51:59;;;;;;;8.02;2.45;;;17.00;56.30;;;;;;5086362;28;20028;-59
2021/07/21 02:54:55;;;;;;;6.72;2.50;;;17.00;56.00;;;;;;5073161;28;20409;-57
2021/07/21 02:57:43;;;;;;;5.03;2.10;;;16.90;56.00;;;;;;5050007;28;20086;-59
2021/07/21 03:00:16;;;;;;;5.35;2.45;;;16.80;55.60;;;;;;5085842;28;20537;-57
2021/07/21 03:02:46;;;;;;;7.10;2.97;;;16.70;56.90;;;;;;5086477;28;20028;-58
2021/07/21 03:05:17;;;;;;;5.45;2.25;;;16.60;57.00;;;;;;5086299;28;20373;-56
2021/07/21 03:08:11;;;;;;;7.00;2.75;;;16.50;56.90;;;;;;5086021;28;20023;-53
2021/07/21 03:10:42;;;;;;;8.05;2.92;;;16.40;58.20;;;;;;5082778;28;20036;-61
2021/07/21 03:13:16;;;;;;;8.13;3.00;;;16.30;58.30;;;;;;5086014;28;20111;-56
2021/07/21 03:15:45;;;;;;;6.60;2.45;;;16.30;58.80;;;;;;5085885;28;20078;-57
2021/07/21 03:18:25;;;;;;;6.90;2.88;;;16.30;59.00;;;;;;5085988;28;20084;-57
2021/07/21 03:20:56;;;;;;;8.95;2.80;;;16.20;59.20;;;;;;5085445;28;20494;-56
2021/07/21 03:23:26;;;;;;;5.13;2.60;;;16.20;59.20;;;;;;5085760;28;20028;-58
2021/07/21 03:25:57;;;;;;;7.15;3.38;;;16.20;59.20;;;;;;5067334;28;20047;-55
2021/07/21 03:28:26;;;;;;;5.53;2.47;;;16.20;59.40;;;;;;5084915;28;20060;-55
2021/07/21 03:30:55;;;;;;;6.00;2.67;;;16.20;60.00;;;;;;5085787;28;20028;-56
2021/07/21 03:33:25;;;;;;;6.25;2.97;;;16.30;60.50;;;;;;5085320;28;20028;-55
2021/07/21 03:35:55;;;;;;;5.63;3.15;;;16.40;59.80;;;;;;5085435;28;20028;-58
2021/07/21 03:38:23;;;;;;;7.20;2.53;;;16.40;59.60;;;;;;5085222;28;20078;-58
2021/07/21 03:40:52;;;;;;;7.45;2.78;;;16.40;58.80;;;;;;5085071;28;20024;-58
2021/07/21 03:43:22;;;;;;;4.32;2.42;;;16.40;58.30;;;;;;5085079;28;20028;-59
2021/07/21 03:45:51;;;;;;;7.22;2.30;;;16.40;58.80;;;;;;5085280;28;20490;-56
2021/07/21 03:48:19;;;;;;;9.75;2.80;;;16.40;60.10;;;;;;5085146;28;20028;-58
2021/07/21 03:50:47;;;;;;;6.30;2.65;;;16.50;58.50;;;;;;5084998;28;20710;-58
2021/07/21 03:53:15;;;;;;;6.65;3.10;;;16.50;59.10;;;;;;5093420;28;20020;-60
2021/07/21 03:55:43;;;;;;;5.07;2.55;;;16.60;60.10;;;;;;5110061;28;20168;-61
2021/07/21 03:58:12;;;;;;;5.43;2.65;;;16.70;59.70;;;;;;5110368;28;20024;-62
2021/07/21 04:00:40;;;;;;;6.28;3.00;;;16.80;60.10;;;;;;5098087;28;20035;-50
2021/07/21 04:03:08;;;;;;;8.73;2.50;;;17.00;58.00;;;;;;5102243;28;20035;-46
2021/07/21 04:05:36;;;;;;;9.10;2.95;;;17.30;56.80;;;;;;5100320;28;20035;-58
2021/07/21 04:08:05;;;;;;;4.97;2.60;;;17.50;58.30;;;;;;5098516;28;20360;-55
2021/07/21 04:10:33;;;;;;;10.20;2.80;;;17.80;57.10;;;;;;5102382;28;20113;-56
2021/07/21 04:13:02;;;;;;;4.07;2.00;;;18.00;56.50;;;;;;5099057;28;20031;-54
2021/07/21 04:15:31;;;;;;;9.18;2.50;;;18.10;54.60;;;;;;5080733;28;20039;-61
2021/07/21 04:18:00;;;;;;;5.40;2.30;;;18.20;55.60;;;;;;5102467;28;20431;-59
2021/07/21 04:20:29;;;;;;;5.30;2.20;;;18.40;55.00;;;;;;5100771;28;20032;-57
2021/07/21 04:22:58;;;;;;;6.38;2.88;;;18.50;54.20;;;;;;5097144;28;20162;-58
2021/07/21 04:25:27;;;;;;;6.32;2.40;;;18.80;56.00;;;;;;5099194;28;20023;-63
2021/07/21 04:27:57;;;;;;;7.28;2.03;;;18.90;54.20;;;;;;5096794;28;20048;-62
2021/07/21 04:30:27;;;;;;;5.75;2.65;;;19.00;53.90;;;;;;5100567;28;20020;-58
2021/07/21 04:32:56;;;;;;;4.97;2.38;;;18.80;52.70;;;;;;5096092;28;20032;-58
2021/07/21 04:35:26;;;;;;;5.97;2.28;;;18.70;54.40;;;;;;5093245;28;20036;-56
2021/07/21 04:37:53;;;;;;;5.18;2.45;;;18.80;53.50;;;;;;5102978;28;20027;-62
2021/07/21 04:40:21;;;;;;;6.03;2.30;;;18.90;54.90;;;;;;5102441;28;20508;-60
2021/07/21 04:42:49;;;;;;;4.40;2.15;;;18.90;54.10;;;;;;5101184;28;20031;-61
2021/07/21 04:45:16;;;;;;;4.18;2.15;;;18.90;53.00;;;;;;5097812;28;20437;-52
2021/07/21 04:47:44;;;;;;;4.20;2.35;;;19.00;53.30;;;;;;5093404;28;20016;-53
2021/07/21 04:50:15;;;;;;;5.30;2.33;;;19.10;53.70;;;;;;5100615;28;20434;-56
2021/07/21 04:52:44;;;;;;;7.88;2.47;;;19.10;54.30;;;;;;5108453;28;20060;-64
2021/07/21 04:55:11;;;;;;;4.32;2.05;;;19.20;54.10;;;;;;5109829;28;20065;-60
2021/07/21 04:57:38;;;;;;;3.97;1.95;;;19.20;53.60;;;;;;5109169;28;20036;-52
2021/07/21 05:00:07;;;;;;;3.25;1.73;;;19.30;52.10;;;;;;5109423;28;20028;-58
2021/07/21 05:02:34;;;;;;;3.85;1.80;;;19.40;52.20;;;;;;5108481;28;20023;-60
2021/07/21 05:05:03;;;;;;;4.63;1.80;;;19.50;52.50;;;;;;5109213;28;20034;-54
2021/07/21 05:07:30;;;;;;;3.53;1.75;;;19.50;53.50;;;;;;5109463;28;20031;-60
2021/07/21 05:09:58;;;;;;;3.30;1.90;;;19.50;53.40;;;;;;5108792;28;20031;-59
2021/07/21 05:12:25;;;;;;;4.07;1.92;;;19.50;51.50;;;;;;5109462;28;20031;-55
2021/07/21 05:14:52;;;;;;;3.67;1.60;;;19.40;51.60;;;;;;5112712;28;20067;-60
2021/07/21 05:17:20;;;;;;;6.38;1.88;;;19.40;52.20;;;;;;5113294;28;20032;-59
2021/07/21 05:19:47;;;;;;;3.72;2.00;;;19.50;52.30;;;;;;5113209;28;20031;-60
2021/07/21 05:22:16;;;;;;;4.80;2.03;;;19.40;50.70;;;;;;5112869;28;20024;-61
2021/07/21 05:24:43;;;;;;;2.90;1.65;;;19.40;53.30;;;;;;5113280;28;20024;-59
2021/07/21 05:27:13;;;;;;;5.68;2.10;;;19.40;50.60;;;;;;5094157;28;20115;-60
2021/07/21 05:29:41;;;;;;;3.28;1.63;;;19.50;53.40;;;;;;5094566;28;20047;-55
2021/07/21 05:32:08;;;;;;;5.07;1.73;;;19.50;53.00;;;;;;5113215;28;20097;-59
2021/07/21 05:34:36;;;;;;;7.75;1.63;;;19.50;51.50;;;;;;5113213;28;20782;-60
2021/07/21 05:37:09;;;;;;;6.65;1.55;;;19.50;52.60;;;;;;5113358;28;20034;-60
2021/07/21 05:39:39;;;;;;;4.28;1.65;;;19.60;52.50;;;;;;5094440;28;20038;-59
2021/07/21 05:42:07;;;;;;;5.80;1.95;;;19.60;51.40;;;;;;5112815;28;20131;-59
2021/07/21 05:44:34;;;;;;;3.70;1.50;;;19.70;49.40;;;;;;5113123;28;20184;-54
2021/07/21 05:47:02;;;;;;;5.65;1.63;;;19.60;50.80;;;;;;5112473;28;20172;-58
2021/07/21 05:49:29;;;;;;;5.35;1.63;;;19.50;49.70;;;;;;5112965;28;20034;-57
2021/07/21 05:51:56;;;;;;;12.15;5.63;;;19.50;50.60;;;;;;5112729;28;20026;-59
2021/07/21 05:54:24;;;;;;;6.05;1.30;;;19.30;49.70;;;;;;5112794;28;20097;-55
2021/07/21 05:56:51;;;;;;;3.60;1.50;;;19.20;50.60;;;;;;5112568;28;20389;-56
2021/07/21 05:59:19;;;;;;;4.38;1.48;;;19.10;51.00;;;;;;5112544;28;20050;-60
2021/07/21 06:01:46;;;;;;;2.72;1.25;;;18.90;51.40;;;;;;5094021;28;20051;-58
2021/07/21 06:04:13;;;;;;;6.00;1.70;;;18.60;52.80;;;;;;5112762;28;20461;-61
2021/07/21 06:06:41;;;;;;;3.42;1.35;;;18.40;52.50;;;;;;5112981;28;20028;-58
2021/07/21 06:09:08;;;;;;;2.65;1.33;;;18.20;52.10;;;;;;5112822;28;20035;-61
2021/07/21 06:11:36;;;;;;;4.18;1.83;;;18.00;53.50;;;;;;5111956;28;20077;-59
2021/07/21 06:14:03;;;;;;;3.25;1.25;;;17.80;52.80;;;;;;5112201;28;20043;-61
2021/07/21 06:16:30;;;;;;;4.90;1.33;;;17.70;55.10;;;;;;5101034;27;20043;-61
2021/07/21 06:18:58;;;;;;;4.13;1.92;;;17.50;54.30;;;;;;5097286;28;20058;-61
2021/07/21 06:21:26;;;;;;;5.00;1.30;;;17.40;55.20;;;;;;5102661;28;20032;-58
2021/07/21 06:23:53;;;;;;;3.20;1.48;;;17.30;55.80;;;;;;5093777;28;20107;-55
2021/07/21 06:26:20;;;;;;;2.50;1.05;;;17.10;56.80;;;;;;5100408;28;20024;-58
2021/07/21 06:28:49;;;;;;;5.28;1.52;;;17.10;57.40;;;;;;5104044;28;20048;-55
2021/07/21 06:31:17;;;;;;;3.13;1.35;;;17.00;57.40;;;;;;5098942;28;20123;-58
2021/07/21 06:33:44;;;;;;;2.63;1.05;;;16.90;57.30;;;;;;5081033;28;20032;-56
2021/07/21 06:36:50;;;;;;;2.17;1.10;;;16.80;58.10;;;;;;5098136;28;20063;-57
2021/07/21 06:39:17;;;;;;;3.05;1.20;;;16.80;58.40;;;;;;5078129;28;20028;-61
2021/07/21 06:41:45;;;;;;;3.47;1.23;;;16.70;58.60;;;;;;5107970;28;20054;-62
2021/07/21 06:44:12;;;;;;;7.32;1.60;;;16.60;57.90;;;;;;5105691;28;20024;-51
2021/07/21 06:46:40;;;;;;;2.47;1.02;;;16.60;58.60;;;;;;5105057;28;20076;-57
2021/07/21 06:49:07;;;;;;;4.38;1.27;;;16.60;58.90;;;;;;5101157;28;20027;-57
2021/07/21 06:51:35;;;;;;;4.20;1.50;;;16.50;58.80;;;;;;5098992;28;20024;-55
2021/07/21 06:54:03;;;;;;;3.08;1.25;;;16.50;59.10;;;;;;5084686;28;20035;-55
2021/07/21 06:56:30;;;;;;;5.22;1.38;;;16.40;59.50;;;;;;5099979;28;20039;-55
2021/07/21 06:58:58;;;;;;;3.15;1.27;;;16.40;59.50;;;;;;5101957;28;20061;-54
2021/07/21 07:01:26;;;;;;;2.42;1.33;;;16.30;59.60;;;;;;5100137;28;20058;-61
2021/07/21 07:03:54;;;;;;;2.25;1.23;;;16.30;59.70;;;;;;5103930;28;20032;-51
2021/07/21 07:06:21;;;;;;;3.00;1.17;;;16.30;59.60;;;;;;5099814;28;20109;-52
2021/07/21 07:08:48;;;;;;;3.10;1.20;;;16.20;59.80;;;;;;5098444;28;20034;-59
2021/07/21 07:11:16;;;;;;;3.22;1.00;;;16.20;59.70;;;;;;5097497;28;20106;-55
2021/07/21 07:13:43;;;;;;;7.05;1.33;;;16.20;59.90;;;;;;5101967;28;20821;-61
2021/07/21 07:16:16;;;;;;;5.38;1.45;;;16.20;60.00;;;;;;5097284;28;20081;-62
2021/07/21 07:18:43;;;;;;;3.65;1.40;;;16.10;60.30;;;;;;5099668;28;20058;-60
2021/07/21 07:21:11;;;;;;;5.85;1.05;;;16.10;60.40;;;;;;5093082;28;20036;-56
2021/07/21 07:23:39;;;;;;;2.00;1.27;;;16.00;60.20;;;;;;5100693;28;20482;-59
2021/07/21 07:26:06;;;;;;;2.75;1.00;;;16.00;60.20;;;;;;5100433;28;20046;-54
2021/07/21 07:28:33;;;;;;;2.65;1.27;;;16.00;60.80;;;;;;5104192;28;20050;-58
2021/07/21 07:31:01;;;;;;;3.50;1.40;;;15.90;60.50;;;;;;5095665;28;20119;-60
2021/07/21 07:33:29;;;;;;;3.72;1.00;;;15.90;60.70;;;;;;5080562;28;20028;-60
2021/07/21 07:35:57;;;;;;;4.03;1.30;;;15.90;60.80;;;;;;5098852;28;20032;-61
2021/07/21 07:38:24;;;;;;;4.35;1.10;;;15.90;60.60;;;;;;5095997;28;20410;-55
2021/07/21 07:40:53;;;;;;;2.20;1.20;;;15.90;60.80;;;;;;5095720;28;20047;-63
2021/07/21 07:43:20;;;;;;;2.75;1.33;;;15.80;60.90;;;;;;5082835;28;20401;-61
2021/07/21 07:45:48;;;;;;;3.70;1.73;;;15.80;61.00;;;;;;5097311;28;20074;-52
2021/07/21 07:48:15;;;;;;;3.22;1.55;;;15.80;61.00;;;;;;5098235;28;20028;-60
2021/07/21 07:50:42;;;;;;;4.00;1.95;;;15.80;61.10;;;;;;5096266;28;20033;-64
2021/07/21 07:53:10;;;;;;;5.93;2.10;;;15.70;61.10;;;;;;5097714;28;20096;-60
2021/07/21 07:55:37;;;;;;;5.57;2.13;;;15.70;61.40;;;;;;5103417;28;20036;-54
2021/07/21 07:58:05;;;;;;;5.88;2.67;;;15.70;61.50;;;;;;5101569;28;20027;-59
2021/07/21 08:00:32;;;;;;;7.25;2.08;;;15.70;61.60;;;;;;5094706;28;20027;-58
2021/07/21 08:03:00;;;;;;;4.28;2.10;;;15.60;61.50;;;;;;5099743;28;20046;-60
2021/07/21 08:05:28;;;;;;;5.70;2.20;;;15.60;61.40;;;;;;5099204;28;20044;-59
2021/07/21 08:08:01;;;;;;;3.75;1.92;;;15.60;61.70;;;;;;5104810;28;20027;-60
2021/07/21 08:10:28;;;;;;;7.97;2.97;;;15.60;61.70;;;;;;5092881;28;20058;-57
2021/07/21 08:12:58;;;;;;;5.18;2.42;;;15.60;61.80;;;;;;5100210;28;20080;-61
2021/07/21 08:15:25;;;;;;;5.15;2.45;;;15.50;61.70;;;;;;5099936;28;20126;-59
2021/07/21 08:17:53;;;;;;;3.97;1.98;;;15.50;61.90;;;;;;5092279;28;20036;-61
2021/07/21 08:20:21;;;;;;;6.38;2.78;;;15.50;62.00;;;;;;5089310;28;20117;-60
2021/07/21 08:22:48;;;;;;;6.28;2.70;;;15.50;61.90;;;;;;5101390;28;20429;-62
2021/07/21 08:25:19;;;;;;;8.57;3.10;;;15.50;62.10;;;;;;5098626;28;20056;-57
2021/07/21 08:27:47;;;;;;;4.63;2.17;;;15.50;62.10;;;;;;5104835;28;20079;-60
2021/07/21 08:30:20;;;;;;;5.90;2.45;;;15.40;62.30;;;;;;5099759;28;20058;-59
2021/07/21 08:33:08;;;;;;;7.78;2.83;;;15.40;62.90;;;;;;5096524;28;20035;-53
2021/07/21 08:35:35;;;;;;;7.10;2.58;;;15.40;62.30;;;;;;5081947;28;20031;-60
2021/07/21 08:38:04;;;;;;;5.88;2.40;;;15.40;62.30;;;;;;5076397;28;20077;-54
2021/07/21 08:40:32;;;;;;;4.60;2.17;;;15.40;62.30;;;;;;5096970;28;20028;-59
2021/07/21 08:43:00;;;;;;;5.65;2.53;;;15.30;62.20;;;;;;5091939;28;20794;-54
2021/07/21 08:46:09;;;;;;;5.28;2.20;;;15.30;62.30;;;;;;5098316;28;20042;-58
2021/07/21 08:48:36;;;;;;;4.05;2.00;;;15.30;62.50;;;;;;5029153;28;20139;-60
2021/07/21 08:51:04;;;;;;;3.80;1.90;;;15.30;62.30;;;;;;5093499;28;20456;-58
2021/07/21 08:53:32;;;;;;;5.00;2.20;;;15.30;62.40;;;;;;5096870;28;20024;-61
2021/07/21 08:55:59;;;;;;;5.80;2.80;;;15.30;62.60;;;;;;5090462;28;20028;-54
2021/07/21 08:58:27;;;;;;;6.40;2.42;;;15.20;62.50;;;;;;5084700;28;20027;-56
2021/07/21 09:00:54;;;;;;;5.50;2.17;;;15.20;62.60;;;;;;5100519;28;20032;-56
2021/07/21 09:03:23;;;;;;;6.43;2.35;;;15.20;62.60;;;;;;5104574;28;20054;-58
2021/07/21 09:05:54;;;;;;;5.63;1.95;;;15.10;62.40;;;;;;5105186;28;20374;-57
2021/07/21 09:08:22;;;;;;;4.97;1.90;;;15.10;62.70;;;;;;5082536;28;20054;-57
2021/07/21 09:10:51;;;;;;;3.15;1.58;;;15.10;62.90;;;;;;5100270;28;20075;-56
2021/07/21 09:13:18;;;;;;;13.27;3.83;;;15.10;62.90;;;;;;5097274;28;20106;-61
2021/07/21 09:15:48;;;;;;;22.58;12.15;;;15.10;63.40;;;;;;5103788;28;21257;-61
2021/07/21 09:18:17;;;;;;;35.25;17.58;;;15.00;63.30;;;;;;5096908;28;20042;-58
2021/07/21 09:20:56;;;;;;;41.35;21.42;;;15.00;63.20;;;;;;5092646;28;20028;-59
2021/07/21 09:23:41;;;;;;;48.10;28.85;;;15.00;63.40;;;;;;5100094;28;20114;-62
2021/07/21 09:26:13;;;;;;;69.05;39.40;;;15.00;63.60;;;;;;5099089;28;20040;-58
2021/07/21 09:28:43;;;;;;;81.10;47.47;;;15.00;63.70;;;;;;5098711;28;20104;-59
2021/07/21 09:31:16;;;;;;;109.90;58.13;;;15.00;63.80;;;;;;5098908;28;20023;-55
2021/07/21 09:33:45;;;;;;;117.07;63.75;;;15.00;63.90;;;;;;5101676;28;20214;-50
2021/07/21 09:36:20;;;;;;;108.50;60.05;;;15.00;64.00;;;;;;5102289;28;20469;-56
2021/07/21 09:38:51;;;;;;;106.90;58.92;;;15.00;63.90;;;;;;5096203;28;20038;-55
2021/07/21 09:41:19;;;;;;;104.13;57.25;;;15.00;64.00;;;;;;5079508;28;21416;-61
2021/07/21 09:43:46;;;;;;;113.85;61.08;;;15.00;64.00;;;;;;5093978;28;20489;-62
2021/07/21 09:46:15;;;;;;;103.00;59.92;;;15.00;64.10;;;;;;5090273;28;20047;-62
2021/07/21 09:48:46;;;;;;;111.97;63.65;;;15.00;64.00;;;;;;5099625;28;20023;-61
2021/07/21 09:51:28;;;;;;;107.07;59.58;;;15.00;64.00;;;;;;5095195;28;20031;-63
2021/07/21 09:53:56;;;;;;;99.72;57.28;;;15.00;64.00;;;;;;5098488;28;20036;-62
2021/07/21 09:56:32;;;;;;;101.05;57.70;;;15.00;63.90;;;;;;5093787;28;20031;-59
2021/07/21 09:59:24;;;;;;;106.05;58.20;;;15.00;63.80;;;;;;5095277;28;20098;-59
2021/07/21 10:01:53;;;;;;;108.77;60.07;;;15.00;63.90;;;;;;5102136;28;20118;-61
2021/07/21 10:04:36;;;;;;;106.35;59.40;;;15.00;64.00;;;;;;5104934;28;20482;-64
2021/07/21 10:07:14;;;;;;;;;;;15.00;64.00;;;;;;5101999;28;20084;-55
2021/07/21 10:09:41;;;;;;;105.25;57.67;;;14.90;64.00;;;;;;5102037;28;19951;-57
2021/07/21 10:12:16;;;;;;;113.88;58.75;;;14.90;64.00;;;;;;5102773;28;20032;-59
2021/07/21 10:14:58;;;;;;;100.57;57.80;;;14.90;64.00;;;;;;5097907;28;20039;-66
2021/07/21 10:17:26;;;;;;;95.10;55.43;;;14.90;64.00;;;;;;5074104;28;20020;-63
2021/07/21 10:19:54;;;;;;;95.40;57.55;;;14.90;64.10;;;;;;5092158;28;20028;-61
2021/07/21 10:22:24;;;;;;;96.65;54.47;;;14.90;64.10;;;;;;5091983;28;20079;-55
2021/07/21 10:24:57;;;;;;;95.15;54.60;;;14.80;64.10;;;;;;5073988;28;20046;-61
2021/07/21 10:27:24;;;;;;;99.45;54.05;;;14.80;64.20;;;;;;5091924;28;20445;-55
2021/07/21 10:29:53;;;;;;;99.25;54.53;;;14.80;64.10;;;;;;5091862;28;20040;-64
2021/07/21 10:32:22;;;;;;;93.97;52.55;;;14.80;64.10;;;;;;5091951;28;20028;-64
2021/07/21 10:34:49;;;;;;;94.70;51.33;;;14.70;64.10;;;;;;5091901;28;20036;-53
2021/07/21 10:37:17;;;;;;;89.75;54.35;;;14.70;64.20;;;;;;5089619;28;20669;-58
2021/07/21 10:39:45;;;;;;;97.78;55.00;;;14.70;64.40;;;;;;5101999;28;20118;-57
2021/07/21 10:42:19;;;;;;;96.68;53.42;;;14.70;64.50;;;;;;5108078;28;20031;-62
2021/07/21 10:45:18;;;;;;;90.15;52.28;;;14.60;64.60;;;;;;5107478;28;20112;-58
2021/07/21 10:47:52;;;;;;;81.25;49.90;;;14.60;64.60;;;;;;5106839;28;20417;-60
2021/07/21 10:51:00;;;;;;;89.57;51.63;;;14.60;64.70;;;;;;5107681;28;20059;-57
2021/07/21 10:59:14;;;;;;;80.78;48.05;;;14.50;65.00;;;;;;5107217;28;20720;-58
2021/07/21 11:02:00;;;;;;;83.97;47.60;;;14.50;65.10;;;;;;5107356;28;20023;-60
2021/07/21 11:04:43;;;;;;;84.28;48.58;;;14.50;65.00;;;;;;5088888;28;20662;-62
2021/07/21 11:07:14;;;;;;;74.25;43.70;;;14.40;65.40;;;;;;5107095;28;20020;-56
2021/07/21 11:09:49;;;;;;;82.65;45.83;;;14.50;65.50;;;;;;5107151;28;20035;-53
2021/07/21 11:12:33;;;;;;;81.78;45.45;;;14.50;65.30;;;;;;5106664;28;20031;-55
2021/07/21 11:15:01;;;;;;;78.18;45.33;;;14.50;65.30;;;;;;5106836;28;20045;-57
2021/07/21 11:17:29;;;;;;;80.13;44.70;;;14.40;65.40;;;;;;5088627;28;20031;-57
2021/07/21 11:19:57;;;;;;;77.97;41.88;;;14.40;65.30;;;;;;5106837;28;20027;-53
2021/07/21 11:22:28;;;;;;;68.20;40.78;;;14.40;65.40;;;;;;5106138;28;20046;-55
2021/07/21 11:25:02;;;;;;;68.28;40.35;;;14.40;65.40;;;;;;5106584;28;20036;-52
2021/07/21 11:27:53;;;;;;;70.13;39.97;;;14.40;65.30;;;;;;5106138;28;20047;-60
2021/07/21 11:30:35;;;;;;;69.70;41.35;;;14.30;65.40;;;;;;5106556;28;20058;-53
2021/07/21 11:33:38;;;;;;;66.68;38.45;;;14.40;65.60;;;;;;5106251;28;20189;-55
2021/07/21 11:36:06;;;;;;;70.97;39.47;;;14.30;65.60;;;;;;5106070;28;20042;-53
2021/07/21 11:39:00;;;;;;;60.83;37.22;;;14.30;66.30;;;;;;5087453;28;20099;-60
2021/07/21 11:41:50;;;;;;;60.97;34.90;;;14.30;66.30;;;;;;5102449;28;20177;-61
2021/07/21 11:44:33;;;;;;;58.35;34.17;;;14.30;66.20;;;;;;5093907;28;20050;-64
2021/07/21 11:47:04;;;;;;;55.65;33.00;;;14.20;66.20;;;;;;5106289;28;20011;-52
2021/07/21 11:49:34;;;;;;;63.25;34.60;;;14.20;66.40;;;;;;5106564;28;20046;-58
2021/07/21 11:52:04;;;;;;;53.38;33.38;;;14.30;66.30;;;;;;5098028;28;20016;-59
2021/07/21 11:54:34;;;;;;;51.60;30.25;;;14.20;66.30;;;;;;5085030;28;20093;-57
2021/07/21 11:57:04;;;;;;;56.50;33.22;;;14.20;66.30;;;;;;5085347;28;20167;-53
2021/07/21 11:59:38;;;;;;;51.47;31.65;;;14.20;66.30;;;;;;5085731;28;20031;-61
2021/07/21 12:02:14;;;;;;;55.33;30.67;;;14.20;66.40;;;;;;5085555;28;20775;-58
2021/07/21 12:04:47;;;;;;;54.80;32.17;;;14.20;66.40;;;;;;5085671;28;20024;-57
2021/07/21 12:07:17;;;;;;;52.38;30.38;;;14.20;66.40;;;;;;5085611;28;20031;-59
2021/07/21 12:09:47;;;;;;;52.60;29.92;;;14.20;66.40;;;;;;5103441;28;20110;-58
2021/07/21 12:12:17;;;;;;;53.88;30.40;;;14.20;66.10;;;;;;5106068;28;20032;-62
2021/07/21 12:14:55;;;;;;;48.05;28.25;;;14.10;66.10;;;;;;5106089;28;20032;-60
2021/07/21 12:17:26;;;;;;;47.00;26.88;;;14.10;66.00;;;;;;5105627;28;20038;-57
2021/07/21 12:19:58;;;;;;;50.67;29.40;;;14.10;66.00;;;;;;5105407;28;20741;-58
2021/07/21 12:22:29;;;;;;;50.90;29.63;;;14.10;65.90;;;;;;5104239;28;20027;-61
2021/07/21 12:24:58;;;;;;;45.67;26.90;;;14.10;66.10;;;;;;5105151;28;20053;-60
2021/07/21 12:27:37;;;;;;;46.15;26.73;;;14.10;66.10;;;;;;5105474;28;20040;-62
2021/07/21 12:30:15;;;;;;;44.50;25.90;;;14.10;66.20;;;;;;5087410;28;20023;-62
2021/07/21 12:32:45;;;;;;;44.53;24.33;;;14.00;66.10;;;;;;5105430;28;20346;-58
2021/07/21 12:35:14;;;;;;;42.25;24.45;;;14.00;66.10;;;;;;5105275;28;20485;-56
2021/07/21 12:37:46;;;;;;;40.22;23.90;;;14.10;66.20;;;;;;5074983;28;20043;-58
2021/07/21 12:40:15;;;;;;;;;;;14.00;66.20;;;;;;5085458;28;20487;-55
2021/07/21 12:42:43;;;;;;;41.40;24.92;;;14.00;66.10;;;;;;5085349;28;19933;-56
2021/07/21 12:45:11;;;;;;;37.78;24.60;;;14.00;66.30;;;;;;5085157;28;20035;-53
2021/07/21 12:47:41;;;;;;;37.22;22.67;;;14.00;66.40;;;;;;5085055;28;20066;-59
2021/07/21 12:50:21;;;;;;;38.00;23.08;;;14.00;66.30;;;;;;5088316;28;20047;-54
2021/07/21 12:52:54;;;;;;;37.83;22.40;;;14.00;66.40;;;;;;5104884;28;20031;-57
2021/07/21 12:55:37;;;;;;;37.95;21.42;;;14.00;66.50;;;;;;5105167;28;20407;-61
2021/07/21 12:58:07;;;;;;;42.08;23.30;;;14.00;66.40;;;;;;5104759;28;20092;-58
2021/07/21 13:00:40;;;;;;;34.83;20.83;;;14.00;66.50;;;;;;5107149;28;20016;-67
2021/07/21 13:03:10;;;;;;;33.88;20.92;;;13.90;66.50;;;;;;5091517;28;20459;-58
2021/07/21 13:05:48;;;;;;;36.08;20.58;;;13.90;66.70;;;;;;5109607;28;20030;-62
2021/07/21 13:08:28;;;;;;;29.90;19.05;;;13.90;66.60;;;;;;5109753;28;20034;-64
2021/07/21 13:11:09;;;;;;;37.42;19.83;;;13.90;66.60;;;;;;5109704;28;20043;-62
2021/07/21 13:13:37;;;;;;;30.13;19.10;;;13.90;66.70;;;;;;5109327;28;20492;-56